Terminal Aerodrome Forecast
Issued by NWS

Home | Current Version | Previous Version | Text Only | Print | Product List | Glossary Off
Versions: 1 2 3 4 5 6 7 8 9 10 11 12 13 14

000
FTUS42 KMHX 011100
TAFPGV
TAF
KPGV 011133Z 0112/0212 21003KT P6SM SCT010
     FM011400 24007KT P6SM VCTS SCT040CB
     FM020900 22003KT 5SM BR SCT250
      AMD LTD TO CLD VIS AND WIND=

USA.gov is the U.S. government's official web portal to all federal, state and local government web resources and services.